EWG281 ENGM-EDDH
Flight info
| Callsign | EWG281 |
|---|---|
| Flight time | 1h 24m |
| Altitude | 37000 |
| Route | VIPPA1C VIPPA DCT AAL DCT LUTUS/N0452F380 P615 ALS M852 ALASA/N0455F390 M852 EKERN/N0385F230 T905 BOGMU BOGMU3N |
| Aircraft | A20N/M-SDE2E3FGHIRWXY/LB1 |
Departure
| Time | 2026-05-06 19:15 |
|---|---|
| Airport | Oslo-Gardermoen International Airport (ENGM) |
Arrival
| Time | 2026-05-06 20:39 |
|---|---|
| Airport | Hamburg Helmut Schmidt Airport (EDDH) |
| Time | Latitude | Longitude | Altitude | Speed | Heading |
|---|---|---|---|---|---|
| 2026-05-06 18:34 | 60.19543 | 11.09578 | 683 ft | 0 kts | 196° |
| 2026-05-06 19:00 | 60.19550 | 11.09582 | 684 ft | 3 kts | 196° |
| 2026-05-06 19:01 | 60.19574 | 11.09596 | 684 ft | 3 kts | 196° |
| 2026-05-06 19:01 | 60.19591 | 11.09606 | 683 ft | 3 kts | 196° |
| 2026-05-06 19:01 | 60.19609 | 11.09616 | 679 ft | 3 kts | 196° |
| 2026-05-06 19:01 | 60.19626 | 11.09626 | 681 ft | 3 kts | 208° |
| 2026-05-06 19:02 | 60.19633 | 11.09634 | 683 ft | 0 kts | 208° |
| 2026-05-06 19:05 | 60.19631 | 11.09629 | 682 ft | 1 kts | 225° |
| 2026-05-06 19:06 | 60.19630 | 11.09614 | 680 ft | 1 kts | 266° |
| 2026-05-06 19:06 | 60.19635 | 11.09593 | 683 ft | 3 kts | 297° |
| 2026-05-06 19:06 | 60.19653 | 11.09535 | 684 ft | 7 kts | 302° |
| 2026-05-06 19:06 | 60.19678 | 11.09424 | 682 ft | 11 kts | 284° |
| 2026-05-06 19:07 | 60.19702 | 11.09260 | 683 ft | 14 kts | 286° |
| 2026-05-06 19:07 | 60.19721 | 11.09127 | 683 ft | 17 kts | 286° |
| 2026-05-06 19:07 | 60.19770 | 11.08783 | 677 ft | 19 kts | 286° |
| 2026-05-06 19:07 | 60.19823 | 11.08699 | 681 ft | 11 kts | 13° |
| 2026-05-06 19:08 | 60.19899 | 11.08746 | 681 ft | 12 kts | 16° |
| 2026-05-06 19:08 | 60.19987 | 11.08796 | 681 ft | 14 kts | 15° |
| 2026-05-06 19:08 | 60.20086 | 11.08854 | 677 ft | 15 kts | 16° |
| 2026-05-06 19:08 | 60.20189 | 11.08910 | 682 ft | 16 kts | 15° |
| 2026-05-06 19:09 | 60.20301 | 11.08973 | 682 ft | 18 kts | 15° |
| 2026-05-06 19:09 | 60.20424 | 11.09044 | 681 ft | 19 kts | 17° |
| 2026-05-06 19:09 | 60.20556 | 11.09120 | 682 ft | 20 kts | 15° |
| 2026-05-06 19:09 | 60.20693 | 11.09197 | 684 ft | 20 kts | 17° |
| 2026-05-06 19:10 | 60.20825 | 11.09284 | 686 ft | 20 kts | 13° |
| 2026-05-06 19:10 | 60.20960 | 11.09356 | 685 ft | 21 kts | 15° |
| 2026-05-06 19:10 | 60.21105 | 11.09436 | 686 ft | 22 kts | 15° |
| 2026-05-06 19:10 | 60.21252 | 11.09522 | 684 ft | 22 kts | 15° |
| 2026-05-06 19:11 | 60.21402 | 11.09607 | 685 ft | 16 kts | 16° |
| 2026-05-06 19:11 | 60.21465 | 11.09639 | 686 ft | 13 kts | 7° |
| 2026-05-06 19:11 | 60.21523 | 11.09604 | 687 ft | 0 kts | 319° |
| 2026-05-06 19:11 | 60.21525 | 11.09599 | 682 ft | 2 kts | 316° |
| 2026-05-06 19:12 | 60.21537 | 11.09568 | 684 ft | 4 kts | 302° |
| 2026-05-06 19:12 | 60.21555 | 11.09449 | 681 ft | 14 kts | 283° |
| 2026-05-06 19:12 | 60.21562 | 11.09390 | 685 ft | 0 kts | 283° |
| 2026-05-06 19:13 | 60.21567 | 11.09348 | 683 ft | 5 kts | 283° |
| 2026-05-06 19:13 | 60.21575 | 11.09236 | 684 ft | 11 kts | 265° |
| 2026-05-06 19:13 | 60.21523 | 11.09100 | 682 ft | 4 kts | 201° |
| 2026-05-06 19:14 | 60.21518 | 11.09096 | 682 ft | 3 kts | 198° |
| 2026-05-06 19:14 | 60.21276 | 11.08970 | 685 ft | 69 kts | 195° |
| 2026-05-06 19:14 | 60.20606 | 11.08595 | 681 ft | 130 kts | 195° |
| 2026-05-06 19:14 | 60.19570 | 11.08007 | 690 ft | 175 kts | 195° |
| 2026-05-06 19:15 | 60.18390 | 11.07340 | 1218 ft | 173 kts | 197° |
| 2026-05-06 19:15 | 60.17286 | 11.06592 | 2032 ft | 168 kts | 205° |
| 2026-05-06 19:15 | 60.16305 | 11.05069 | 2356 ft | 193 kts | 234° |
| 2026-05-06 19:15 | 60.15607 | 11.02542 | 2562 ft | 225 kts | 245° |
| 2026-05-06 19:16 | 60.14945 | 10.99506 | 3069 ft | 246 kts | 246° |
| 2026-05-06 19:16 | 60.14259 | 10.96313 | 3921 ft | 251 kts | 246° |
| 2026-05-06 19:16 | 60.13546 | 10.93099 | 4827 ft | 254 kts | 245° |
| 2026-05-06 19:16 | 60.12812 | 10.89851 | 5725 ft | 257 kts | 245° |
| 2026-05-06 19:17 | 60.11987 | 10.86652 | 6512 ft | 260 kts | 236° |
| 2026-05-06 19:17 | 60.10771 | 10.83977 | 6913 ft | 262 kts | 217° |
| 2026-05-06 19:17 | 60.09196 | 10.82108 | 7003 ft | 264 kts | 206° |
| 2026-05-06 19:17 | 60.07514 | 10.80579 | 6950 ft | 266 kts | 204° |
| 2026-05-06 19:18 | 60.05805 | 10.79125 | 7005 ft | 268 kts | 203° |
| 2026-05-06 19:18 | 60.04077 | 10.77674 | 7659 ft | 271 kts | 203° |
| 2026-05-06 19:18 | 60.02336 | 10.76213 | 8436 ft | 270 kts | 203° |
| 2026-05-06 19:18 | 60.00610 | 10.74763 | 8845 ft | 269 kts | 204° |
| 2026-05-06 19:19 | 59.98885 | 10.73314 | 8913 ft | 269 kts | 203° |
| 2026-05-06 19:19 | 59.97157 | 10.71862 | 9154 ft | 271 kts | 203° |
| 2026-05-06 19:19 | 59.95414 | 10.70398 | 9992 ft | 272 kts | 204° |
| 2026-05-06 19:19 | 59.93630 | 10.68903 | 10617 ft | 288 kts | 204° |
| 2026-05-06 19:20 | 59.91731 | 10.67311 | 10977 ft | 311 kts | 204° |
| 2026-05-06 19:20 | 59.89685 | 10.65600 | 11528 ft | 326 kts | 205° |
| 2026-05-06 19:20 | 59.87576 | 10.63843 | 11909 ft | 331 kts | 205° |
| 2026-05-06 19:20 | 59.85439 | 10.62063 | 12719 ft | 334 kts | 205° |
| 2026-05-06 19:21 | 59.83296 | 10.60282 | 13768 ft | 334 kts | 206° |
| 2026-05-06 19:21 | 59.81145 | 10.58496 | 14631 ft | 336 kts | 206° |
| 2026-05-06 19:21 | 59.78978 | 10.56697 | 15455 ft | 339 kts | 207° |
| 2026-05-06 19:21 | 59.76795 | 10.54886 | 16268 ft | 341 kts | 207° |
| 2026-05-06 19:22 | 59.74595 | 10.53066 | 17040 ft | 345 kts | 207° |
| 2026-05-06 19:22 | 59.72361 | 10.51217 | 17708 ft | 351 kts | 207° |
| 2026-05-06 19:22 | 59.70102 | 10.49350 | 18461 ft | 353 kts | 207° |
| 2026-05-06 19:22 | 59.67821 | 10.47469 | 19147 ft | 356 kts | 207° |
| 2026-05-06 19:23 | 59.65528 | 10.45582 | 19837 ft | 359 kts | 207° |
| 2026-05-06 19:23 | 59.63214 | 10.43680 | 20533 ft | 362 kts | 207° |
| 2026-05-06 19:23 | 59.60878 | 10.41770 | 21209 ft | 365 kts | 207° |
| 2026-05-06 19:23 | 59.58460 | 10.40129 | 21866 ft | 372 kts | 200° |
| 2026-05-06 19:24 | 59.55901 | 10.39042 | 22457 ft | 379 kts | 196° |
| 2026-05-06 19:24 | 59.53288 | 10.38146 | 23057 ft | 383 kts | 195° |
| 2026-05-06 19:24 | 59.50646 | 10.37275 | 23626 ft | 386 kts | 195° |
| 2026-05-06 19:24 | 59.47993 | 10.36399 | 24130 ft | 388 kts | 196° |
| 2026-05-06 19:25 | 59.45319 | 10.35510 | 24514 ft | 392 kts | 195° |
| 2026-05-06 19:25 | 59.42618 | 10.34607 | 24951 ft | 395 kts | 195° |
| 2026-05-06 19:25 | 59.39907 | 10.33702 | 25473 ft | 396 kts | 195° |
| 2026-05-06 19:25 | 59.37192 | 10.32796 | 25989 ft | 397 kts | 195° |
| 2026-05-06 19:26 | 59.34467 | 10.31887 | 26464 ft | 398 kts | 195° |
| 2026-05-06 19:26 | 59.31731 | 10.30973 | 26910 ft | 400 kts | 196° |
| 2026-05-06 19:26 | 59.28986 | 10.30059 | 27376 ft | 401 kts | 195° |
| 2026-05-06 19:26 | 59.26231 | 10.29144 | 27813 ft | 402 kts | 196° |
| 2026-05-06 19:27 | 59.23467 | 10.28224 | 28250 ft | 404 kts | 196° |
| 2026-05-06 19:27 | 59.20690 | 10.27302 | 28670 ft | 406 kts | 196° |
| 2026-05-06 19:27 | 59.17897 | 10.26393 | 28947 ft | 410 kts | 194° |
| 2026-05-06 19:27 | 59.15027 | 10.25781 | 29212 ft | 418 kts | 191° |
| 2026-05-06 19:28 | 59.12120 | 10.25361 | 29654 ft | 419 kts | 190° |
| 2026-05-06 19:28 | 59.09220 | 10.24980 | 30232 ft | 415 kts | 190° |
| 2026-05-06 19:28 | 59.06346 | 10.24603 | 30684 ft | 414 kts | 190° |
| 2026-05-06 19:28 | 59.03476 | 10.24222 | 31046 ft | 414 kts | 190° |
| 2026-05-06 19:29 | 59.00606 | 10.23838 | 31446 ft | 412 kts | 190° |
| 2026-05-06 19:29 | 58.97744 | 10.23454 | 31812 ft | 412 kts | 190° |
| 2026-05-06 19:29 | 58.94882 | 10.23070 | 32140 ft | 413 kts | 190° |
| 2026-05-06 19:29 | 58.92018 | 10.22703 | 32466 ft | 413 kts | 189° |
| 2026-05-06 19:30 | 58.89186 | 10.22349 | 32760 ft | 412 kts | 189° |
| 2026-05-06 19:30 | 58.86331 | 10.21991 | 33135 ft | 411 kts | 189° |
| 2026-05-06 19:30 | 58.83478 | 10.21627 | 33476 ft | 410 kts | 189° |
| 2026-05-06 19:30 | 58.80628 | 10.21256 | 33797 ft | 410 kts | 189° |
| 2026-05-06 19:31 | 58.77783 | 10.20881 | 34082 ft | 410 kts | 189° |
| 2026-05-06 19:31 | 58.74933 | 10.20502 | 34287 ft | 411 kts | 189° |
| 2026-05-06 19:31 | 58.69208 | 10.19738 | 34667 ft | 414 kts | 189° |
| 2026-05-06 19:32 | 58.66333 | 10.19357 | 34853 ft | 415 kts | 189° |
| 2026-05-06 19:32 | 58.63450 | 10.18976 | 35043 ft | 416 kts | 189° |
| 2026-05-06 19:32 | 58.60562 | 10.18596 | 35211 ft | 416 kts | 188° |
| 2026-05-06 19:32 | 58.57673 | 10.18218 | 35432 ft | 416 kts | 188° |
| 2026-05-06 19:33 | 58.54782 | 10.17840 | 35619 ft | 417 kts | 188° |
| 2026-05-06 19:33 | 58.51881 | 10.17461 | 35797 ft | 418 kts | 188° |
| 2026-05-06 19:33 | 58.48978 | 10.17082 | 35967 ft | 419 kts | 188° |
| 2026-05-06 19:33 | 58.46062 | 10.16701 | 36137 ft | 420 kts | 188° |
| 2026-05-06 19:34 | 58.43144 | 10.16322 | 36300 ft | 421 kts | 188° |
| 2026-05-06 19:34 | 58.40219 | 10.15942 | 36466 ft | 422 kts | 188° |
| 2026-05-06 19:34 | 58.37287 | 10.15562 | 36630 ft | 423 kts | 188° |
| 2026-05-06 19:34 | 58.34349 | 10.15182 | 36792 ft | 424 kts | 188° |
| 2026-05-06 19:35 | 58.31405 | 10.14802 | 36942 ft | 425 kts | 188° |
| 2026-05-06 19:35 | 58.28449 | 10.14420 | 36970 ft | 426 kts | 188° |
| 2026-05-06 19:35 | 58.22539 | 10.13663 | 36971 ft | 425 kts | 188° |
| 2026-05-06 19:36 | 58.16637 | 10.12909 | 36973 ft | 425 kts | 188° |
| 2026-05-06 19:36 | 58.10736 | 10.12157 | 36973 ft | 425 kts | 188° |
| 2026-05-06 19:37 | 58.04834 | 10.11406 | 36970 ft | 425 kts | 188° |
| 2026-05-06 19:37 | 57.99932 | 10.10786 | 36974 ft | 425 kts | 188° |
| 2026-05-06 19:38 | 57.93034 | 10.09915 | 36980 ft | 425 kts | 188° |
| 2026-05-06 19:38 | 57.87131 | 10.09172 | 36979 ft | 425 kts | 188° |
| 2026-05-06 19:39 | 57.81230 | 10.08432 | 36977 ft | 425 kts | 188° |
| 2026-05-06 19:39 | 57.75330 | 10.07694 | 36973 ft | 424 kts | 187° |
| 2026-05-06 19:40 | 57.69444 | 10.06962 | 36982 ft | 424 kts | 187° |
| 2026-05-06 19:40 | 57.63598 | 10.06236 | 36979 ft | 424 kts | 187° |
| 2026-05-06 19:41 | 57.57676 | 10.05502 | 36978 ft | 424 kts | 187° |
| 2026-05-06 19:41 | 57.51830 | 10.04781 | 36957 ft | 424 kts | 187° |
| 2026-05-06 19:42 | 57.45940 | 10.04056 | 36980 ft | 424 kts | 187° |
| 2026-05-06 19:42 | 57.40051 | 10.03334 | 36985 ft | 424 kts | 187° |
| 2026-05-06 19:43 | 57.34160 | 10.02615 | 36988 ft | 424 kts | 187° |
| 2026-05-06 19:43 | 57.28272 | 10.01897 | 36990 ft | 424 kts | 187° |
| 2026-05-06 19:44 | 57.22378 | 10.01182 | 36987 ft | 424 kts | 187° |
| 2026-05-06 19:44 | 57.16485 | 10.00469 | 36993 ft | 424 kts | 187° |
| 2026-05-06 19:45 | 57.10597 | 9.99775 | 36994 ft | 424 kts | 186° |
| 2026-05-06 19:45 | 57.04679 | 9.99563 | 36994 ft | 426 kts | 184° |
| 2026-05-06 19:46 | 56.98748 | 9.99628 | 36991 ft | 426 kts | 183° |
| 2026-05-06 19:46 | 56.92811 | 9.99690 | 36988 ft | 426 kts | 183° |
| 2026-05-06 19:47 | 56.86881 | 9.99707 | 36986 ft | 426 kts | 183° |
| 2026-05-06 19:47 | 56.80950 | 9.99702 | 36984 ft | 426 kts | 184° |
| 2026-05-06 19:48 | 56.75017 | 9.99691 | 36984 ft | 426 kts | 184° |
| 2026-05-06 19:48 | 56.69083 | 9.99682 | 36976 ft | 426 kts | 183° |
| 2026-05-06 19:49 | 56.63140 | 9.99673 | 36983 ft | 427 kts | 183° |
| 2026-05-06 19:49 | 56.57199 | 9.99667 | 36981 ft | 427 kts | 183° |
| 2026-05-06 19:50 | 56.51255 | 9.99660 | 36982 ft | 427 kts | 183° |
| 2026-05-06 19:50 | 56.45309 | 9.99653 | 36981 ft | 427 kts | 183° |
| 2026-05-06 19:51 | 56.39360 | 9.99645 | 36974 ft | 428 kts | 183° |
| 2026-05-06 19:51 | 56.33403 | 9.99638 | 36976 ft | 428 kts | 183° |
| 2026-05-06 19:52 | 56.27445 | 9.99632 | 36976 ft | 428 kts | 183° |
| 2026-05-06 19:52 | 56.21489 | 9.99625 | 36972 ft | 428 kts | 183° |
| 2026-05-06 19:53 | 56.15568 | 9.99619 | 36962 ft | 428 kts | 183° |
| 2026-05-06 19:53 | 56.09563 | 9.99612 | 36971 ft | 429 kts | 183° |
| 2026-05-06 19:54 | 56.03575 | 9.99609 | 36974 ft | 434 kts | 183° |
| 2026-05-06 19:54 | 55.97502 | 9.99608 | 36976 ft | 444 kts | 182° |
| 2026-05-06 19:55 | 55.91239 | 9.99610 | 36973 ft | 448 kts | 182° |
| 2026-05-06 19:55 | 55.85012 | 9.99612 | 36969 ft | 447 kts | 182° |
| 2026-05-06 19:56 | 55.78793 | 9.99609 | 36977 ft | 447 kts | 182° |
| 2026-05-06 19:56 | 55.72588 | 9.99605 | 36693 ft | 441 kts | 182° |
| 2026-05-06 19:57 | 55.69588 | 9.99605 | 36407 ft | 433 kts | 182° |
| 2026-05-06 19:57 | 55.66594 | 9.99605 | 36003 ft | 428 kts | 182° |
| 2026-05-06 19:57 | 55.63626 | 9.99602 | 35513 ft | 425 kts | 182° |
| 2026-05-06 19:57 | 55.60676 | 9.99598 | 34985 ft | 424 kts | 182° |
| 2026-05-06 19:58 | 55.57731 | 9.99594 | 34445 ft | 422 kts | 182° |
| 2026-05-06 19:58 | 55.54794 | 9.99590 | 33889 ft | 422 kts | 182° |
| 2026-05-06 19:58 | 55.51866 | 9.99587 | 33256 ft | 421 kts | 183° |
| 2026-05-06 19:58 | 55.49890 | 9.99522 | 32789 ft | 419 kts | 186° |
| 2026-05-06 19:59 | 55.47000 | 9.98990 | 32121 ft | 416 kts | 191° |
| 2026-05-06 19:59 | 55.44146 | 9.98175 | 31472 ft | 415 kts | 192° |
| 2026-05-06 19:59 | 55.41303 | 9.97283 | 30809 ft | 415 kts | 193° |
| 2026-05-06 19:59 | 55.38504 | 9.96382 | 30153 ft | 415 kts | 193° |
| 2026-05-06 20:00 | 55.35666 | 9.95459 | 29307 ft | 416 kts | 193° |
| 2026-05-06 20:00 | 55.32809 | 9.94527 | 28450 ft | 418 kts | 192° |
| 2026-05-06 20:00 | 55.29956 | 9.93596 | 27834 ft | 415 kts | 192° |
| 2026-05-06 20:00 | 55.27139 | 9.92680 | 27391 ft | 410 kts | 192° |
| 2026-05-06 20:01 | 55.24337 | 9.91768 | 26715 ft | 409 kts | 192° |
| 2026-05-06 20:01 | 55.21543 | 9.90858 | 26101 ft | 407 kts | 192° |
| 2026-05-06 20:01 | 55.18770 | 9.89958 | 25529 ft | 404 kts | 192° |
| 2026-05-06 20:01 | 55.16016 | 9.89064 | 24967 ft | 401 kts | 192° |
| 2026-05-06 20:02 | 55.13279 | 9.88177 | 24423 ft | 398 kts | 192° |
| 2026-05-06 20:02 | 55.10562 | 9.87298 | 23833 ft | 397 kts | 192° |
| 2026-05-06 20:02 | 55.07853 | 9.86422 | 23235 ft | 395 kts | 192° |
| 2026-05-06 20:02 | 55.05156 | 9.85552 | 22988 ft | 394 kts | 192° |
| 2026-05-06 20:03 | 55.02454 | 9.84680 | 22950 ft | 395 kts | 192° |
| 2026-05-06 20:03 | 54.99766 | 9.83816 | 22683 ft | 392 kts | 192° |
| 2026-05-06 20:03 | 54.97079 | 9.82953 | 22411 ft | 393 kts | 192° |
| 2026-05-06 20:03 | 54.94392 | 9.82090 | 22140 ft | 392 kts | 192° |
| 2026-05-06 20:04 | 54.91711 | 9.81231 | 21872 ft | 392 kts | 192° |
| 2026-05-06 20:04 | 54.89035 | 9.80375 | 21608 ft | 391 kts | 192° |
| 2026-05-06 20:04 | 54.86363 | 9.79521 | 21333 ft | 390 kts | 192° |
| 2026-05-06 20:04 | 54.83691 | 9.78668 | 21056 ft | 391 kts | 192° |
| 2026-05-06 20:05 | 54.81014 | 9.77815 | 20798 ft | 391 kts | 192° |
| 2026-05-06 20:05 | 54.78344 | 9.76965 | 20547 ft | 390 kts | 192° |
| 2026-05-06 20:05 | 54.75677 | 9.76117 | 20290 ft | 389 kts | 192° |
| 2026-05-06 20:05 | 54.73054 | 9.75285 | 20041 ft | 388 kts | 192° |
| 2026-05-06 20:06 | 54.70402 | 9.74444 | 19790 ft | 387 kts | 192° |
| 2026-05-06 20:06 | 54.67756 | 9.73606 | 19543 ft | 386 kts | 192° |
| 2026-05-06 20:06 | 54.65120 | 9.72774 | 19149 ft | 384 kts | 192° |
| 2026-05-06 20:06 | 54.62499 | 9.71946 | 18573 ft | 382 kts | 192° |
| 2026-05-06 20:07 | 54.59895 | 9.71124 | 18043 ft | 378 kts | 191° |
| 2026-05-06 20:07 | 54.57324 | 9.70315 | 17433 ft | 374 kts | 191° |
| 2026-05-06 20:07 | 54.54772 | 9.69512 | 16814 ft | 372 kts | 191° |
| 2026-05-06 20:07 | 54.52230 | 9.68713 | 16192 ft | 370 kts | 191° |
| 2026-05-06 20:08 | 54.49705 | 9.67921 | 15586 ft | 368 kts | 191° |
| 2026-05-06 20:08 | 54.47198 | 9.67135 | 15009 ft | 365 kts | 191° |
| 2026-05-06 20:08 | 54.44704 | 9.66355 | 14434 ft | 363 kts | 191° |
| 2026-05-06 20:08 | 54.42224 | 9.65579 | 13868 ft | 361 kts | 191° |
| 2026-05-06 20:09 | 54.39760 | 9.64810 | 13250 ft | 359 kts | 191° |
| 2026-05-06 20:09 | 54.37315 | 9.64043 | 12634 ft | 357 kts | 191° |
| 2026-05-06 20:09 | 54.34869 | 9.63280 | 11984 ft | 356 kts | 190° |
| 2026-05-06 20:09 | 54.32449 | 9.62528 | 11461 ft | 352 kts | 190° |
| 2026-05-06 20:10 | 54.30051 | 9.61784 | 10911 ft | 349 kts | 189° |
| 2026-05-06 20:10 | 54.27673 | 9.61046 | 10369 ft | 346 kts | 189° |
| 2026-05-06 20:10 | 54.25317 | 9.60315 | 10026 ft | 343 kts | 189° |
| 2026-05-06 20:10 | 54.22961 | 9.59586 | 9933 ft | 344 kts | 189° |
| 2026-05-06 20:11 | 54.20629 | 9.58865 | 9939 ft | 332 kts | 189° |
| 2026-05-06 20:11 | 54.18398 | 9.58176 | 9947 ft | 328 kts | 189° |
| 2026-05-06 20:11 | 54.16114 | 9.57474 | 9935 ft | 332 kts | 189° |
| 2026-05-06 20:11 | 54.13911 | 9.56794 | 9927 ft | 316 kts | 189° |
| 2026-05-06 20:12 | 54.11682 | 9.56110 | 9926 ft | 334 kts | 189° |
| 2026-05-06 20:12 | 54.09448 | 9.55423 | 9924 ft | 316 kts | 189° |
| 2026-05-06 20:12 | 54.07274 | 9.54755 | 9927 ft | 329 kts | 189° |
| 2026-05-06 20:12 | 54.04985 | 9.54055 | 9913 ft | 329 kts | 189° |
| 2026-05-06 20:13 | 54.02824 | 9.53391 | 9921 ft | 314 kts | 189° |
| 2026-05-06 20:13 | 54.00586 | 9.52707 | 9910 ft | 337 kts | 189° |
| 2026-05-06 20:13 | 53.98336 | 9.52019 | 9916 ft | 319 kts | 189° |
| 2026-05-06 20:13 | 53.96195 | 9.51362 | 9909 ft | 319 kts | 189° |
| 2026-05-06 20:14 | 53.93934 | 9.50675 | 9908 ft | 330 kts | 189° |
| 2026-05-06 20:14 | 53.91744 | 9.50005 | 9910 ft | 310 kts | 189° |
| 2026-05-06 20:14 | 53.89578 | 9.49346 | 9907 ft | 330 kts | 189° |
| 2026-05-06 20:14 | 53.87312 | 9.48658 | 9898 ft | 323 kts | 189° |
| 2026-05-06 20:15 | 53.85157 | 9.47997 | 9913 ft | 315 kts | 189° |
| 2026-05-06 20:15 | 53.82892 | 9.47656 | 9915 ft | 331 kts | 174° |
| 2026-05-06 20:15 | 53.80709 | 9.48286 | 9992 ft | 307 kts | 165° |
| 2026-05-06 20:15 | 53.78644 | 9.49138 | 10002 ft | 317 kts | 163° |
| 2026-05-06 20:16 | 53.76438 | 9.50087 | 9984 ft | 325 kts | 163° |
| 2026-05-06 20:16 | 53.74313 | 9.51020 | 9944 ft | 307 kts | 163° |
| 2026-05-06 20:16 | 53.72287 | 9.51909 | 9781 ft | 295 kts | 163° |
| 2026-05-06 20:16 | 53.70315 | 9.52769 | 9404 ft | 291 kts | 163° |
| 2026-05-06 20:17 | 53.68355 | 9.53612 | 8971 ft | 290 kts | 163° |
| 2026-05-06 20:17 | 53.66397 | 9.54427 | 8531 ft | 289 kts | 163° |
| 2026-05-06 20:17 | 53.64458 | 9.55239 | 8145 ft | 286 kts | 163° |
| 2026-05-06 20:17 | 53.62531 | 9.56045 | 7752 ft | 284 kts | 163° |
| 2026-05-06 20:18 | 53.60624 | 9.56857 | 7378 ft | 281 kts | 163° |
| 2026-05-06 20:18 | 53.58731 | 9.57658 | 6966 ft | 280 kts | 163° |
| 2026-05-06 20:18 | 53.56839 | 9.58455 | 6561 ft | 280 kts | 163° |
| 2026-05-06 20:18 | 53.54957 | 9.59238 | 6174 ft | 278 kts | 163° |
| 2026-05-06 20:19 | 53.53076 | 9.60012 | 5574 ft | 282 kts | 163° |
| 2026-05-06 20:19 | 53.51127 | 9.60797 | 4767 ft | 294 kts | 163° |
| 2026-05-06 20:19 | 53.49098 | 9.61591 | 3896 ft | 305 kts | 163° |
| 2026-05-06 20:19 | 53.47135 | 9.62876 | 3280 ft | 301 kts | 142° |
| 2026-05-06 20:20 | 53.45775 | 9.65357 | 3028 ft | 280 kts | 114° |
| 2026-05-06 20:20 | 53.45311 | 9.68318 | 3009 ft | 250 kts | 90° |
| 2026-05-06 20:20 | 53.45549 | 9.71117 | 3012 ft | 242 kts | 69° |
| 2026-05-06 20:20 | 53.46228 | 9.73711 | 3004 ft | 244 kts | 60° |
| 2026-05-06 20:21 | 53.47338 | 9.75820 | 3008 ft | 244 kts | 34° |
| 2026-05-06 20:21 | 53.48849 | 9.77144 | 3005 ft | 246 kts | 25° |
| 2026-05-06 20:21 | 53.50433 | 9.78278 | 3009 ft | 249 kts | 24° |
| 2026-05-06 20:21 | 53.52033 | 9.79395 | 3006 ft | 249 kts | 24° |
| 2026-05-06 20:22 | 53.53600 | 9.80611 | 3004 ft | 247 kts | 31° |
| 2026-05-06 20:22 | 53.54974 | 9.82321 | 2782 ft | 246 kts | 46° |
| 2026-05-06 20:22 | 53.56049 | 9.84528 | 2546 ft | 243 kts | 52° |
| 2026-05-06 20:22 | 53.57081 | 9.86772 | 2506 ft | 243 kts | 51° |
| 2026-05-06 20:23 | 53.58141 | 9.88981 | 2504 ft | 243 kts | 51° |
| 2026-05-06 20:23 | 53.59224 | 9.91128 | 2504 ft | 244 kts | 50° |
| 2026-05-06 20:23 | 53.60322 | 9.93305 | 2506 ft | 244 kts | 51° |
| 2026-05-06 20:23 | 53.61399 | 9.95504 | 2507 ft | 244 kts | 51° |
| 2026-05-06 20:24 | 53.62484 | 9.97699 | 2597 ft | 244 kts | 51° |
| 2026-05-06 20:24 | 53.63580 | 9.99921 | 3229 ft | 248 kts | 51° |
| 2026-05-06 20:24 | 53.64681 | 10.02157 | 3783 ft | 247 kts | 51° |
| 2026-05-06 20:24 | 53.65778 | 10.04387 | 3990 ft | 247 kts | 51° |
| 2026-05-06 20:25 | 53.66847 | 10.06562 | 4008 ft | 234 kts | 51° |
| 2026-05-06 20:25 | 53.67870 | 10.08640 | 4010 ft | 228 kts | 51° |
| 2026-05-06 20:25 | 53.68884 | 10.10702 | 4006 ft | 229 kts | 51° |
| 2026-05-06 20:25 | 53.69899 | 10.12775 | 4006 ft | 229 kts | 53° |
| 2026-05-06 20:26 | 53.70565 | 10.15174 | 4003 ft | 228 kts | 81° |
| 2026-05-06 20:26 | 53.70360 | 10.17806 | 4004 ft | 231 kts | 112° |
| 2026-05-06 20:26 | 53.69315 | 10.19908 | 4007 ft | 247 kts | 143° |
| 2026-05-06 20:26 | 53.67653 | 10.20921 | 4002 ft | 264 kts | 173° |
| 2026-05-06 20:27 | 53.65816 | 10.20492 | 4007 ft | 272 kts | 197° |
| 2026-05-06 20:27 | 53.64067 | 10.19240 | 4007 ft | 274 kts | 203° |
| 2026-05-06 20:27 | 53.62350 | 10.17854 | 4003 ft | 274 kts | 204° |
| 2026-05-06 20:27 | 53.60631 | 10.16454 | 4005 ft | 274 kts | 204° |
| 2026-05-06 20:28 | 53.58912 | 10.15060 | 4006 ft | 274 kts | 204° |
| 2026-05-06 20:28 | 53.57193 | 10.13662 | 4005 ft | 274 kts | 204° |
| 2026-05-06 20:28 | 53.55495 | 10.12192 | 4004 ft | 275 kts | 213° |
| 2026-05-06 20:28 | 53.54123 | 10.09966 | 4009 ft | 276 kts | 231° |
| 2026-05-06 20:29 | 53.52965 | 10.07394 | 4008 ft | 276 kts | 233° |
| 2026-05-06 20:29 | 53.51836 | 10.04774 | 4005 ft | 277 kts | 234° |
| 2026-05-06 20:29 | 53.50711 | 10.02151 | 4006 ft | 277 kts | 234° |
| 2026-05-06 20:29 | 53.49597 | 9.99554 | 4001 ft | 267 kts | 234° |
| 2026-05-06 20:30 | 53.48546 | 9.97101 | 4006 ft | 251 kts | 234° |
| 2026-05-06 20:30 | 53.46560 | 9.92465 | 4038 ft | 243 kts | 234° |
| 2026-05-06 20:30 | 53.45573 | 9.90154 | 4011 ft | 244 kts | 234° |
| 2026-05-06 20:31 | 53.44578 | 9.87835 | 4005 ft | 245 kts | 234° |
| 2026-05-06 20:31 | 53.43580 | 9.85509 | 3993 ft | 245 kts | 234° |
| 2026-05-06 20:31 | 53.42583 | 9.83190 | 3987 ft | 246 kts | 234° |
| 2026-05-06 20:31 | 53.41584 | 9.80869 | 3987 ft | 245 kts | 234° |
| 2026-05-06 20:32 | 53.40585 | 9.78551 | 3995 ft | 245 kts | 234° |
| 2026-05-06 20:32 | 53.39601 | 9.76267 | 3992 ft | 245 kts | 234° |
| 2026-05-06 20:32 | 53.38675 | 9.73873 | 3987 ft | 245 kts | 247° |
| 2026-05-06 20:32 | 53.38438 | 9.71106 | 3985 ft | 241 kts | 279° |
| 2026-05-06 20:33 | 53.39036 | 9.68557 | 3609 ft | 234 kts | 310° |
| 2026-05-06 20:33 | 53.40294 | 9.66980 | 3164 ft | 224 kts | 344° |
| 2026-05-06 20:33 | 53.41803 | 9.66865 | 3006 ft | 218 kts | 15° |
| 2026-05-06 20:33 | 53.43243 | 9.67646 | 2994 ft | 218 kts | 23° |
| 2026-05-06 20:34 | 53.44652 | 9.68571 | 3005 ft | 217 kts | 24° |
| 2026-05-06 20:34 | 53.46059 | 9.69517 | 3001 ft | 214 kts | 24° |
| 2026-05-06 20:34 | 53.47367 | 9.70391 | 3010 ft | 191 kts | 24° |
| 2026-05-06 20:34 | 53.48530 | 9.71156 | 3009 ft | 170 kts | 24° |
| 2026-05-06 20:35 | 53.49555 | 9.72059 | 3012 ft | 165 kts | 38° |
| 2026-05-06 20:35 | 53.50397 | 9.73351 | 3011 ft | 164 kts | 48° |
| 2026-05-06 20:35 | 53.51145 | 9.74795 | 3007 ft | 164 kts | 50° |
| 2026-05-06 20:35 | 53.51875 | 9.76266 | 3008 ft | 164 kts | 51° |
| 2026-05-06 20:36 | 53.52603 | 9.77739 | 3017 ft | 163 kts | 51° |
| 2026-05-06 20:36 | 53.53330 | 9.79205 | 3007 ft | 164 kts | 51° |
| 2026-05-06 20:36 | 53.54065 | 9.80680 | 2927 ft | 165 kts | 51° |
| 2026-05-06 20:36 | 53.54808 | 9.82174 | 2921 ft | 172 kts | 51° |
| 2026-05-06 20:37 | 53.55597 | 9.83763 | 2603 ft | 181 kts | 51° |
| 2026-05-06 20:37 | 53.56432 | 9.85450 | 1913 ft | 196 kts | 51° |
| 2026-05-06 20:37 | 53.57360 | 9.87326 | 1083 ft | 220 kts | 51° |
| 2026-05-06 20:37 | 53.58260 | 9.89415 | 945 ft | 216 kts | 55° |
| 2026-05-06 20:38 | 53.59266 | 9.91445 | 636 ft | 233 kts | 46° |
| 2026-05-06 20:38 | 53.60328 | 9.93396 | 330 ft | 223 kts | 49° |
| 2026-05-06 20:38 | 53.61277 | 9.95274 | 205 ft | 205 kts | 49° |
| 2026-05-06 20:38 | 53.62154 | 9.97002 | 51 ft | 182 kts | 49° |
| 2026-05-06 20:39 | 53.62431 | 9.98244 | 51 ft | 83 kts | 122° |
| 2026-05-06 20:39 | 53.62327 | 9.98550 | 54 ft | 0 kts | 131° |